sensor_id;sensor_type;location;lat;lon;timestamp;P1;durP1;ratioP1;P2;durP2;ratioP2
12267;SDS011;6196;48.398;11.736;2023-08-21T00:00:13;8.93;;;8.23;;
12267;SDS011;6196;48.398;11.736;2023-08-21T00:02:40;8.73;;;8.03;;
12267;SDS011;6196;48.398;11.736;2023-08-21T00:05:07;9.13;;;8.33;;
12267;SDS011;6196;48.398;11.736;2023-08-21T00:07:35;7.77;;;7.10;;
12267;SDS011;6196;48.398;11.736;2023-08-21T00:10:02;9.17;;;8.37;;
12267;SDS011;6196;48.398;11.736;2023-08-21T00:12:29;9.80;;;8.87;;
12267;SDS011;6196;48.398;11.736;2023-08-21T00:14:57;9.53;;;8.73;;
12267;SDS011;6196;48.398;11.736;2023-08-21T00:17:24;9.47;;;8.67;;
12267;SDS011;6196;48.398;11.736;2023-08-21T00:19:51;9.70;;;8.83;;
12267;SDS011;6196;48.398;11.736;2023-08-21T00:22:18;9.23;;;8.43;;
12267;SDS011;6196;48.398;11.736;2023-08-21T00:24:45;9.50;;;8.70;;
12267;SDS011;6196;48.398;11.736;2023-08-21T00:27:12;10.00;;;9.20;;
12267;SDS011;6196;48.398;11.736;2023-08-21T00:29:39;9.17;;;8.47;;
12267;SDS011;6196;48.398;11.736;2023-08-21T00:32:06;9.80;;;8.90;;
12267;SDS011;6196;48.398;11.736;2023-08-21T00:34:32;10.40;;;9.50;;
12267;SDS011;6196;48.398;11.736;2023-08-21T00:36:59;9.60;;;8.60;;
12267;SDS011;6196;48.398;11.736;2023-08-21T00:39:26;9.37;;;8.57;;
12267;SDS011;6196;48.398;11.736;2023-08-21T00:41:53;10.00;;;9.10;;
12267;SDS011;6196;48.398;11.736;2023-08-21T00:44:21;10.40;;;8.83;;
12267;SDS011;6196;48.398;11.736;2023-08-21T00:46:47;9.50;;;8.70;;
12267;SDS011;6196;48.398;11.736;2023-08-21T00:49:14;10.07;;;9.20;;
12267;SDS011;6196;48.398;11.736;2023-08-21T00:51:41;9.63;;;8.73;;
12267;SDS011;6196;48.398;11.736;2023-08-21T00:54:08;9.57;;;8.67;;
12267;SDS011;6196;48.398;11.736;2023-08-21T00:56:36;9.43;;;8.63;;
12267;SDS011;6196;48.398;11.736;2023-08-21T00:59:03;9.50;;;8.60;;
12267;SDS011;6196;48.398;11.736;2023-08-21T01:01:30;10.20;;;9.20;;
12267;SDS011;6196;48.398;11.736;2023-08-21T01:03:57;9.60;;;8.80;;
12267;SDS011;6196;48.398;11.736;2023-08-21T01:06:24;9.83;;;9.03;;
12267;SDS011;6196;48.398;11.736;2023-08-21T01:14:33;9.50;;;8.70;;
12267;SDS011;6196;48.398;11.736;2023-08-21T01:17:11;9.87;;;8.97;;
12267;SDS011;6196;48.398;11.736;2023-08-21T01:19:41;9.73;;;8.93;;
12267;SDS011;6196;48.398;11.736;2023-08-21T01:22:11;9.17;;;8.40;;
12267;SDS011;6196;48.398;11.736;2023-08-21T01:24:38;9.60;;;8.60;;
12267;SDS011;6196;48.398;11.736;2023-08-21T01:27:05;9.90;;;9.03;;
12267;SDS011;6196;48.398;11.736;2023-08-21T01:29:32;10.37;;;9.37;;
12267;SDS011;6196;48.398;11.736;2023-08-21T01:32:23;9.60;;;8.73;;
12267;SDS011;6196;48.398;11.736;2023-08-21T01:34:56;9.67;;;8.73;;
12267;SDS011;6196;48.398;11.736;2023-08-21T01:37:24;10.83;;;9.83;;
12267;SDS011;6196;48.398;11.736;2023-08-21T01:39:52;10.27;;;9.33;;
12267;SDS011;6196;48.398;11.736;2023-08-21T01:42:19;10.70;;;9.63;;
12267;SDS011;6196;48.398;11.736;2023-08-21T01:44:46;10.30;;;9.37;;
12267;SDS011;6196;48.398;11.736;2023-08-21T01:47:13;10.63;;;9.63;;
12267;SDS011;6196;48.398;11.736;2023-08-21T01:49:40;10.60;;;9.70;;
12267;SDS011;6196;48.398;11.736;2023-08-21T01:52:07;11.13;;;10.07;;
12267;SDS011;6196;48.398;11.736;2023-08-21T01:54:35;10.90;;;9.90;;
12267;SDS011;6196;48.398;11.736;2023-08-21T01:57:02;11.17;;;10.17;;
12267;SDS011;6196;48.398;11.736;2023-08-21T01:59:29;10.13;;;9.23;;
12267;SDS011;6196;48.398;11.736;2023-08-21T02:01:56;10.50;;;9.40;;
12267;SDS011;6196;48.398;11.736;2023-08-21T02:04:23;10.20;;;9.30;;
12267;SDS011;6196;48.398;11.736;2023-08-21T02:06:50;10.10;;;9.20;;
12267;SDS011;6196;48.398;11.736;2023-08-21T02:09:17;9.77;;;8.97;;
12267;SDS011;6196;48.398;11.736;2023-08-21T02:11:44;9.97;;;9.07;;
12267;SDS011;6196;48.398;11.736;2023-08-21T02:14:11;9.43;;;8.47;;
12267;SDS011;6196;48.398;11.736;2023-08-21T02:16:37;9.67;;;8.67;;
12267;SDS011;6196;48.398;11.736;2023-08-21T02:19:04;8.70;;;8.00;;
12267;SDS011;6196;48.398;11.736;2023-08-21T02:21:31;8.73;;;7.93;;
12267;SDS011;6196;48.398;11.736;2023-08-21T02:24:00;9.67;;;8.77;;
12267;SDS011;6196;48.398;11.736;2023-08-21T02:26:27;9.10;;;8.23;;
12267;SDS011;6196;48.398;11.736;2023-08-21T02:28:54;9.97;;;8.97;;
12267;SDS011;6196;48.398;11.736;2023-08-21T02:31:21;10.70;;;9.60;;
12267;SDS011;6196;48.398;11.736;2023-08-21T02:33:48;9.93;;;8.93;;
12267;SDS011;6196;48.398;11.736;2023-08-21T02:36:16;10.10;;;9.10;;
12267;SDS011;6196;48.398;11.736;2023-08-21T02:38:43;10.13;;;9.13;;
12267;SDS011;6196;48.398;11.736;2023-08-21T02:41:09;10.83;;;9.73;;
12267;SDS011;6196;48.398;11.736;2023-08-21T02:43:36;10.27;;;9.47;;
12267;SDS011;6196;48.398;11.736;2023-08-21T02:46:03;10.70;;;9.70;;
12267;SDS011;6196;48.398;11.736;2023-08-21T02:48:30;11.83;;;10.70;;
12267;SDS011;6196;48.398;11.736;2023-08-21T02:50:57;11.40;;;10.33;;
12267;SDS011;6196;48.398;11.736;2023-08-21T02:53:24;11.23;;;10.13;;
12267;SDS011;6196;48.398;11.736;2023-08-21T02:55:51;10.23;;;9.37;;
12267;SDS011;6196;48.398;11.736;2023-08-21T02:58:18;11.03;;;10.03;;
12267;SDS011;6196;48.398;11.736;2023-08-21T03:00:45;11.00;;;10.00;;
12267;SDS011;6196;48.398;11.736;2023-08-21T03:03:12;11.23;;;10.33;;
12267;SDS011;6196;48.398;11.736;2023-08-21T03:05:39;10.73;;;9.73;;
12267;SDS011;6196;48.398;11.736;2023-08-21T03:08:06;9.90;;;8.90;;
12267;SDS011;6196;48.398;11.736;2023-08-21T03:10:33;10.53;;;9.50;;
12267;SDS011;6196;48.398;11.736;2023-08-21T03:13:00;11.23;;;10.20;;
12267;SDS011;6196;48.398;11.736;2023-08-21T03:15:27;10.57;;;9.67;;
12267;SDS011;6196;48.398;11.736;2023-08-21T03:17:55;10.23;;;9.33;;
12267;SDS011;6196;48.398;11.736;2023-08-21T03:20:22;10.63;;;8.77;;
12267;SDS011;6196;48.398;11.736;2023-08-21T03:22:49;9.40;;;8.60;;
12267;SDS011;6196;48.398;11.736;2023-08-21T03:25:16;8.83;;;8.13;;
12267;SDS011;6196;48.398;11.736;2023-08-21T03:27:43;9.97;;;9.17;;
12267;SDS011;6196;48.398;11.736;2023-08-21T03:30:15;9.50;;;8.70;;
12267;SDS011;6196;48.398;11.736;2023-08-21T03:32:42;10.13;;;9.13;;
12267;SDS011;6196;48.398;11.736;2023-08-21T03:35:09;10.00;;;9.10;;
12267;SDS011;6196;48.398;11.736;2023-08-21T03:37:36;10.83;;;9.73;;
12267;SDS011;6196;48.398;11.736;2023-08-21T03:40:03;9.97;;;9.07;;
12267;SDS011;6196;48.398;11.736;2023-08-21T03:42:31;9.67;;;8.87;;
12267;SDS011;6196;48.398;11.736;2023-08-21T03:44:58;9.93;;;9.07;;
12267;SDS011;6196;48.398;11.736;2023-08-21T03:47:25;9.93;;;9.10;;
12267;SDS011;6196;48.398;11.736;2023-08-21T03:49:51;10.00;;;9.10;;
12267;SDS011;6196;48.398;11.736;2023-08-21T03:52:18;10.37;;;9.37;;
12267;SDS011;6196;48.398;11.736;2023-08-21T03:54:45;10.40;;;9.47;;
12267;SDS011;6196;48.398;11.736;2023-08-21T03:57:12;10.60;;;9.60;;
12267;SDS011;6196;48.398;11.736;2023-08-21T03:59:39;11.73;;;10.60;;
12267;SDS011;6196;48.398;11.736;2023-08-21T04:02:06;10.93;;;9.93;;
12267;SDS011;6196;48.398;11.736;2023-08-21T04:04:33;10.97;;;9.87;;
12267;SDS011;6196;48.398;11.736;2023-08-21T04:06:59;11.23;;;10.23;;
12267;SDS011;6196;48.398;11.736;2023-08-21T04:09:26;11.33;;;10.23;;
12267;SDS011;6196;48.398;11.736;2023-08-21T04:11:53;11.83;;;10.73;;
12267;SDS011;6196;48.398;11.736;2023-08-21T04:14:20;11.80;;;10.70;;
12267;SDS011;6196;48.398;11.736;2023-08-21T04:16:47;10.70;;;9.80;;
12267;SDS011;6196;48.398;11.736;2023-08-21T04:19:14;12.53;;;10.43;;
12267;SDS011;6196;48.398;11.736;2023-08-21T04:21:41;11.43;;;10.43;;
12267;SDS011;6196;48.398;11.736;2023-08-21T04:24:07;11.10;;;10.00;;
12267;SDS011;6196;48.398;11.736;2023-08-21T04:26:34;11.90;;;10.27;;
12267;SDS011;6196;48.398;11.736;2023-08-21T04:29:01;12.00;;;11.00;;
12267;SDS011;6196;48.398;11.736;2023-08-21T04:31:28;11.33;;;10.43;;
12267;SDS011;6196;48.398;11.736;2023-08-21T04:33:55;11.20;;;10.10;;
12267;SDS011;6196;48.398;11.736;2023-08-21T04:36:22;12.43;;;11.13;;
12267;SDS011;6196;48.398;11.736;2023-08-21T04:38:49;10.83;;;9.93;;
12267;SDS011;6196;48.398;11.736;2023-08-21T04:41:16;8.97;;;8.27;;
12267;SDS011;6196;48.398;11.736;2023-08-21T04:43:43;9.27;;;8.37;;
12267;SDS011;6196;48.398;11.736;2023-08-21T04:46:09;8.67;;;7.87;;
12267;SDS011;6196;48.398;11.736;2023-08-21T04:48:36;8.30;;;7.60;;
12267;SDS011;6196;48.398;11.736;2023-08-21T04:51:03;7.93;;;7.13;;
12267;SDS011;6196;48.398;11.736;2023-08-21T04:53:30;8.87;;;8.07;;
12267;SDS011;6196;48.398;11.736;2023-08-21T04:56:00;9.03;;;8.23;;
12267;SDS011;6196;48.398;11.736;2023-08-21T04:58:27;7.90;;;7.20;;
12267;SDS011;6196;48.398;11.736;2023-08-21T05:00:54;7.50;;;6.83;;
12267;SDS011;6196;48.398;11.736;2023-08-21T05:03:21;7.03;;;6.40;;
12267;SDS011;6196;48.398;11.736;2023-08-21T05:05:54;6.30;;;5.80;;
12267;SDS011;6196;48.398;11.736;2023-08-21T05:08:22;7.70;;;7.00;;
12267;SDS011;6196;48.398;11.736;2023-08-21T05:10:55;7.10;;;6.40;;
12267;SDS011;6196;48.398;11.736;2023-08-21T05:13:26;8.30;;;7.43;;
12267;SDS011;6196;48.398;11.736;2023-08-21T05:15:56;7.30;;;6.60;;
12267;SDS011;6196;48.398;11.736;2023-08-21T05:18:24;7.27;;;6.63;;
12267;SDS011;6196;48.398;11.736;2023-08-21T05:20:53;7.67;;;7.07;;
12267;SDS011;6196;48.398;11.736;2023-08-21T05:23:21;17.37;;;9.47;;
12267;SDS011;6196;48.398;11.736;2023-08-21T05:25:48;9.93;;;8.47;;
12267;SDS011;6196;48.398;11.736;2023-08-21T05:28:16;9.73;;;8.33;;
12267;SDS011;6196;48.398;11.736;2023-08-21T05:30:42;9.50;;;7.93;;
12267;SDS011;6196;48.398;11.736;2023-08-21T05:33:12;8.37;;;7.67;;
12267;SDS011;6196;48.398;11.736;2023-08-21T05:35:39;9.00;;;8.13;;
12267;SDS011;6196;48.398;11.736;2023-08-21T05:38:07;9.77;;;8.73;;
12267;SDS011;6196;48.398;11.736;2023-08-21T05:40:34;12.07;;;10.80;;
12267;SDS011;6196;48.398;11.736;2023-08-21T05:43:01;11.67;;;10.50;;
12267;SDS011;6196;48.398;11.736;2023-08-21T05:45:28;10.63;;;9.73;;
12267;SDS011;6196;48.398;11.736;2023-08-21T05:47:56;13.87;;;12.57;;
12267;SDS011;6196;48.398;11.736;2023-08-21T05:50:23;12.80;;;11.60;;
12267;SDS011;6196;48.398;11.736;2023-08-21T05:52:50;13.40;;;12.10;;
12267;SDS011;6196;48.398;11.736;2023-08-21T05:55:17;15.00;;;13.60;;
12267;SDS011;6196;48.398;11.736;2023-08-21T05:57:44;17.43;;;14.60;;
12267;SDS011;6196;48.398;11.736;2023-08-21T06:00:12;16.47;;;14.77;;
12267;SDS011;6196;48.398;11.736;2023-08-21T06:02:40;15.87;;;14.23;;
12267;SDS011;6196;48.398;11.736;2023-08-21T06:05:08;16.47;;;14.97;;
12267;SDS011;6196;48.398;11.736;2023-08-21T06:07:35;17.93;;;16.30;;
12267;SDS011;6196;48.398;11.736;2023-08-21T06:10:02;18.87;;;16.87;;
12267;SDS011;6196;48.398;11.736;2023-08-21T06:12:30;20.03;;;18.00;;
12267;SDS011;6196;48.398;11.736;2023-08-21T06:14:57;18.17;;;16.47;;
12267;SDS011;6196;48.398;11.736;2023-08-21T06:17:24;18.60;;;16.70;;
12267;SDS011;6196;48.398;11.736;2023-08-21T06:19:53;17.77;;;16.17;;
12267;SDS011;6196;48.398;11.736;2023-08-21T06:22:21;15.70;;;14.30;;
12267;SDS011;6196;48.398;11.736;2023-08-21T06:24:48;17.97;;;16.30;;
12267;SDS011;6196;48.398;11.736;2023-08-21T06:27:15;15.47;;;13.90;;
12267;SDS011;6196;48.398;11.736;2023-08-21T06:29:42;15.63;;;14.10;;
12267;SDS011;6196;48.398;11.736;2023-08-21T06:32:09;16.63;;;15.20;;
12267;SDS011;6196;48.398;11.736;2023-08-21T06:34:36;16.43;;;14.90;;
12267;SDS011;6196;48.398;11.736;2023-08-21T06:37:03;16.77;;;15.27;;
12267;SDS011;6196;48.398;11.736;2023-08-21T06:39:30;17.37;;;15.67;;
12267;SDS011;6196;48.398;11.736;2023-08-21T06:41:58;18.83;;;16.77;;
12267;SDS011;6196;48.398;11.736;2023-08-21T06:44:26;19.07;;;17.40;;
12267;SDS011;6196;48.398;11.736;2023-08-21T06:46:53;20.77;;;16.40;;
12267;SDS011;6196;48.398;11.736;2023-08-21T06:49:20;16.97;;;15.47;;
12267;SDS011;6196;48.398;11.736;2023-08-21T06:51:47;17.60;;;16.10;;
12267;SDS011;6196;48.398;11.736;2023-08-21T06:54:14;17.23;;;15.60;;
12267;SDS011;6196;48.398;11.736;2023-08-21T06:56:41;18.03;;;16.27;;
12267;SDS011;6196;48.398;11.736;2023-08-21T06:59:08;17.20;;;15.53;;
12267;SDS011;6196;48.398;11.736;2023-08-21T07:01:34;17.03;;;15.43;;
12267;SDS011;6196;48.398;11.736;2023-08-21T07:04:02;18.93;;;16.93;;
12267;SDS011;6196;48.398;11.736;2023-08-21T07:06:29;18.73;;;16.97;;
12267;SDS011;6196;48.398;11.736;2023-08-21T07:08:57;15.27;;;13.77;;
12267;SDS011;6196;48.398;11.736;2023-08-21T07:11:23;15.90;;;14.60;;
12267;SDS011;6196;48.398;11.736;2023-08-21T07:13:50;16.43;;;15.03;;
12267;SDS011;6196;48.398;11.736;2023-08-21T07:16:17;18.83;;;16.83;;
12267;SDS011;6196;48.398;11.736;2023-08-21T07:18:44;17.73;;;16.10;;
12267;SDS011;6196;48.398;11.736;2023-08-21T07:21:11;15.70;;;14.20;;
12267;SDS011;6196;48.398;11.736;2023-08-21T07:23:58;16.60;;;14.93;;
12267;SDS011;6196;48.398;11.736;2023-08-21T07:26:25;18.67;;;15.63;;
12267;SDS011;6196;48.398;11.736;2023-08-21T07:28:52;16.40;;;14.80;;
12267;SDS011;6196;48.398;11.736;2023-08-21T07:31:19;15.97;;;14.33;;
12267;SDS011;6196;48.398;11.736;2023-08-21T07:33:46;15.05;;;13.70;;
12267;SDS011;6196;48.398;11.736;2023-08-21T07:36:13;15.27;;;13.87;;
12267;SDS011;6196;48.398;11.736;2023-08-21T07:38:43;14.10;;;12.52;;
12267;SDS011;6196;48.398;11.736;2023-08-21T07:41:11;15.50;;;14.10;;
12267;SDS011;6196;48.398;11.736;2023-08-21T07:43:42;14.25;;;12.70;;
12267;SDS011;6196;48.398;11.736;2023-08-21T07:46:11;13.90;;;12.50;;
12267;SDS011;6196;48.398;11.736;2023-08-21T07:48:45;14.23;;;12.93;;
12267;SDS011;6196;48.398;11.736;2023-08-21T07:51:12;14.60;;;13.20;;
12267;SDS011;6196;48.398;11.736;2023-08-21T07:53:39;14.85;;;13.55;;
12267;SDS011;6196;48.398;11.736;2023-08-21T07:56:06;14.02;;;12.52;;
12267;SDS011;6196;48.398;11.736;2023-08-21T07:58:34;12.43;;;11.38;;
12267;SDS011;6196;48.398;11.736;2023-08-21T08:01:01;14.52;;;11.40;;
12267;SDS011;6196;48.398;11.736;2023-08-21T08:03:29;11.50;;;10.40;;
12267;SDS011;6196;48.398;11.736;2023-08-21T08:05:56;14.15;;;11.98;;
12267;SDS011;6196;48.398;11.736;2023-08-21T08:08:23;12.43;;;11.10;;
12267;SDS011;6196;48.398;11.736;2023-08-21T08:10:50;11.85;;;10.02;;
12267;SDS011;6196;48.398;11.736;2023-08-21T08:13:17;12.07;;;10.68;;
12267;SDS011;6196;48.398;11.736;2023-08-21T08:15:43;10.80;;;9.70;;
12267;SDS011;6196;48.398;11.736;2023-08-21T08:18:11;10.52;;;9.43;;
12267;SDS011;6196;48.398;11.736;2023-08-21T08:20:39;10.60;;;9.60;;
12267;SDS011;6196;48.398;11.736;2023-08-21T08:23:06;8.90;;;8.00;;
12267;SDS011;6196;48.398;11.736;2023-08-21T08:25:33;9.90;;;8.98;;
12267;SDS011;6196;48.398;11.736;2023-08-21T08:28:00;10.60;;;9.60;;
12267;SDS011;6196;48.398;11.736;2023-08-21T08:30:27;9.20;;;8.40;;
12267;SDS011;6196;48.398;11.736;2023-08-21T08:32:55;9.00;;;8.20;;
12267;SDS011;6196;48.398;11.736;2023-08-21T08:35:22;8.88;;;8.07;;
12267;SDS011;6196;48.398;11.736;2023-08-21T08:37:49;8.18;;;7.38;;
12267;SDS011;6196;48.398;11.736;2023-08-21T08:40:16;7.70;;;6.93;;
12267;SDS011;6196;48.398;11.736;2023-08-21T08:42:43;9.38;;;8.68;;
12267;SDS011;6196;48.398;11.736;2023-08-21T08:45:11;8.25;;;7.55;;
12267;SDS011;6196;48.398;11.736;2023-08-21T08:47:40;9.27;;;8.13;;
12267;SDS011;6196;48.398;11.736;2023-08-21T08:50:08;7.55;;;6.85;;
12267;SDS011;6196;48.398;11.736;2023-08-21T08:52:37;7.82;;;7.05;;
12267;SDS011;6196;48.398;11.736;2023-08-21T08:55:06;8.30;;;7.55;;
12267;SDS011;6196;48.398;11.736;2023-08-21T08:57:34;8.23;;;7.57;;
12267;SDS011;6196;48.398;11.736;2023-08-21T09:00:04;8.40;;;7.60;;
12267;SDS011;6196;48.398;11.736;2023-08-21T09:02:32;9.73;;;8.38;;
12267;SDS011;6196;48.398;11.736;2023-08-21T09:04:59;9.07;;;8.15;;
12267;SDS011;6196;48.398;11.736;2023-08-21T09:07:26;9.13;;;8.15;;
12267;SDS011;6196;48.398;11.736;2023-08-21T09:09:54;8.95;;;8.00;;
12267;SDS011;6196;48.398;11.736;2023-08-21T09:12:22;7.90;;;7.18;;
12267;SDS011;6196;48.398;11.736;2023-08-21T09:14:49;8.60;;;7.80;;
12267;SDS011;6196;48.398;11.736;2023-08-21T09:17:16;8.70;;;7.90;;
12267;SDS011;6196;48.398;11.736;2023-08-21T09:19:43;8.77;;;8.00;;
12267;SDS011;6196;48.398;11.736;2023-08-21T09:22:11;8.75;;;8.02;;
12267;SDS011;6196;48.398;11.736;2023-08-21T09:24:40;8.75;;;7.95;;
12267;SDS011;6196;48.398;11.736;2023-08-21T09:27:16;8.35;;;7.65;;
12267;SDS011;6196;48.398;11.736;2023-08-21T09:29:44;8.80;;;7.95;;
12267;SDS011;6196;48.398;11.736;2023-08-21T09:32:12;8.90;;;8.10;;
12267;SDS011;6196;48.398;11.736;2023-08-21T09:34:39;9.90;;;8.23;;
12267;SDS011;6196;48.398;11.736;2023-08-21T09:37:06;9.07;;;8.15;;
12267;SDS011;6196;48.398;11.736;2023-08-21T09:39:34;8.43;;;7.65;;
12267;SDS011;6196;48.398;11.736;2023-08-21T09:42:06;8.38;;;7.63;;
12267;SDS011;6196;48.398;11.736;2023-08-21T09:44:37;8.48;;;7.68;;
12267;SDS011;6196;48.398;11.736;2023-08-21T09:47:11;8.15;;;7.55;;
12267;SDS011;6196;48.398;11.736;2023-08-21T09:49:39;8.80;;;8.02;;
12267;SDS011;6196;48.398;11.736;2023-08-21T09:52:07;8.70;;;7.90;;
12267;SDS011;6196;48.398;11.736;2023-08-21T09:54:37;8.85;;;7.47;;
12267;SDS011;6196;48.398;11.736;2023-08-21T09:57:05;8.30;;;7.47;;
12267;SDS011;6196;48.398;11.736;2023-08-21T09:59:32;7.85;;;7.25;;
12267;SDS011;6196;48.398;11.736;2023-08-21T10:01:59;7.50;;;6.90;;
12267;SDS011;6196;48.398;11.736;2023-08-21T10:04:27;8.00;;;7.30;;
12267;SDS011;6196;48.398;11.736;2023-08-21T10:06:58;7.55;;;6.82;;
12267;SDS011;6196;48.398;11.736;2023-08-21T10:09:29;7.35;;;6.63;;
12267;SDS011;6196;48.398;11.736;2023-08-21T10:11:57;8.00;;;6.47;;
12267;SDS011;6196;48.398;11.736;2023-08-21T10:14:24;7.32;;;6.43;;
12267;SDS011;6196;48.398;11.736;2023-08-21T10:16:52;6.97;;;6.38;;
12267;SDS011;6196;48.398;11.736;2023-08-21T10:19:21;6.57;;;6.05;;
12267;SDS011;6196;48.398;11.736;2023-08-21T10:21:48;7.10;;;6.53;;
12267;SDS011;6196;48.398;11.736;2023-08-21T10:24:28;7.38;;;6.68;;
12267;SDS011;6196;48.398;11.736;2023-08-21T10:27:02;8.38;;;7.05;;
12267;SDS011;6196;48.398;11.736;2023-08-21T10:29:30;7.40;;;6.80;;
12267;SDS011;6196;48.398;11.736;2023-08-21T10:32:00;6.85;;;6.25;;
12267;SDS011;6196;48.398;11.736;2023-08-21T10:34:32;6.35;;;5.75;;
12267;SDS011;6196;48.398;11.736;2023-08-21T10:37:08;6.40;;;5.80;;
12267;SDS011;6196;48.398;11.736;2023-08-21T10:39:40;6.55;;;5.40;;
12267;SDS011;6196;48.398;11.736;2023-08-21T10:42:38;6.40;;;5.80;;
12267;SDS011;6196;48.398;11.736;2023-08-21T10:45:11;6.50;;;5.93;;
12267;SDS011;6196;48.398;11.736;2023-08-21T10:47:39;7.63;;;6.20;;
12267;SDS011;6196;48.398;11.736;2023-08-21T10:50:06;6.90;;;6.30;;
12267;SDS011;6196;48.398;11.736;2023-08-21T10:55:08;6.68;;;5.97;;
12267;SDS011;6196;48.398;11.736;2023-08-21T10:57:36;7.15;;;6.25;;
12267;SDS011;6196;48.398;11.736;2023-08-21T11:00:07;7.07;;;6.35;;
12267;SDS011;6196;48.398;11.736;2023-08-21T11:02:40;6.60;;;6.10;;
12267;SDS011;6196;48.398;11.736;2023-08-21T11:05:11;6.97;;;6.10;;
12267;SDS011;6196;48.398;11.736;2023-08-21T11:07:41;6.60;;;6.07;;
12267;SDS011;6196;48.398;11.736;2023-08-21T11:10:14;6.95;;;6.25;;
12267;SDS011;6196;48.398;11.736;2023-08-21T11:12:56;6.30;;;5.70;;
12267;SDS011;6196;48.398;11.736;2023-08-21T11:15:28;6.82;;;5.90;;
12267;SDS011;6196;48.398;11.736;2023-08-21T11:17:56;8.25;;;6.30;;
12267;SDS011;6196;48.398;11.736;2023-08-21T11:20:30;7.32;;;5.00;;
12267;SDS011;6196;48.398;11.736;2023-08-21T11:22:59;6.03;;;5.43;;
12267;SDS011;6196;48.398;11.736;2023-08-21T11:25:33;5.80;;;5.30;;
12267;SDS011;6196;48.398;11.736;2023-08-21T11:28:01;6.00;;;5.10;;
12267;SDS011;6196;48.398;11.736;2023-08-21T11:30:30;5.95;;;5.43;;
12267;SDS011;6196;48.398;11.736;2023-08-21T11:33:32;5.80;;;5.25;;
12267;SDS011;6196;48.398;11.736;2023-08-21T11:35:53;8.18;;;5.55;;
12267;SDS011;6196;48.398;11.736;2023-08-21T11:38:23;6.07;;;5.43;;
12267;SDS011;6196;48.398;11.736;2023-08-21T11:46:07;5.10;;;4.60;;
12267;SDS011;6196;48.398;11.736;2023-08-21T11:48:37;4.78;;;4.32;;
12267;SDS011;6196;48.398;11.736;2023-08-21T11:51:08;5.55;;;5.05;;
12267;SDS011;6196;48.398;11.736;2023-08-21T11:53:39;5.25;;;4.85;;
12267;SDS011;6196;48.398;11.736;2023-08-21T11:56:14;5.05;;;4.60;;
12267;SDS011;6196;48.398;11.736;2023-08-21T11:58:44;5.88;;;4.90;;
12267;SDS011;6196;48.398;11.736;2023-08-21T12:01:21;5.22;;;4.82;;
12267;SDS011;6196;48.398;11.736;2023-08-21T12:03:49;6.18;;;4.95;;
12267;SDS011;6196;48.398;11.736;2023-08-21T12:06:23;5.78;;;5.20;;
12267;SDS011;6196;48.398;11.736;2023-08-21T12:08:51;4.80;;;4.40;;
12267;SDS011;6196;48.398;11.736;2023-08-21T12:11:19;5.43;;;4.40;;
12267;SDS011;6196;48.398;11.736;2023-08-21T12:13:47;4.68;;;4.10;;
12267;SDS011;6196;48.398;11.736;2023-08-21T12:16:14;4.85;;;4.43;;
12267;SDS011;6196;48.398;11.736;2023-08-21T12:18:40;4.80;;;4.43;;
12267;SDS011;6196;48.398;11.736;2023-08-21T12:21:07;5.95;;;4.55;;
12267;SDS011;6196;48.398;11.736;2023-08-21T12:23:34;5.47;;;5.07;;
12267;SDS011;6196;48.398;11.736;2023-08-21T12:26:01;4.43;;;4.10;;
12267;SDS011;6196;48.398;11.736;2023-08-21T12:28:28;4.60;;;4.30;;
12267;SDS011;6196;48.398;11.736;2023-08-21T12:30:56;5.00;;;4.20;;
12267;SDS011;6196;48.398;11.736;2023-08-21T12:33:23;5.00;;;4.50;;
12267;SDS011;6196;48.398;11.736;2023-08-21T12:35:50;5.30;;;4.88;;
12267;SDS011;6196;48.398;11.736;2023-08-21T12:38:18;5.57;;;4.72;;
12267;SDS011;6196;48.398;11.736;2023-08-21T12:40:47;5.57;;;5.10;;
12267;SDS011;6196;48.398;11.736;2023-08-21T12:43:14;5.50;;;5.10;;
12267;SDS011;6196;48.398;11.736;2023-08-21T12:45:41;5.32;;;4.93;;
12267;SDS011;6196;48.398;11.736;2023-08-21T12:48:08;5.25;;;4.32;;
12267;SDS011;6196;48.398;11.736;2023-08-21T12:50:35;6.00;;;4.85;;
12267;SDS011;6196;48.398;11.736;2023-08-21T12:53:02;6.90;;;4.82;;
12267;SDS011;6196;48.398;11.736;2023-08-21T12:55:29;6.78;;;4.10;;
12267;SDS011;6196;48.398;11.736;2023-08-21T12:57:56;5.03;;;4.43;;
12267;SDS011;6196;48.398;11.736;2023-08-21T13:00:23;5.15;;;4.70;;
12267;SDS011;6196;48.398;11.736;2023-08-21T13:02:50;7.22;;;4.97;;
12267;SDS011;6196;48.398;11.736;2023-08-21T13:05:18;5.13;;;4.63;;
12267;SDS011;6196;48.398;11.736;2023-08-21T13:07:45;6.53;;;4.85;;
12267;SDS011;6196;48.398;11.736;2023-08-21T13:10:12;4.97;;;4.50;;
12267;SDS011;6196;48.398;11.736;2023-08-21T13:12:39;6.07;;;4.15;;
12267;SDS011;6196;48.398;11.736;2023-08-21T13:15:07;5.15;;;4.70;;
12267;SDS011;6196;48.398;11.736;2023-08-21T13:17:34;6.07;;;4.53;;
12267;SDS011;6196;48.398;11.736;2023-08-21T13:20:02;5.10;;;4.50;;
12267;SDS011;6196;48.398;11.736;2023-08-21T13:22:46;4.65;;;4.20;;
12267;SDS011;6196;48.398;11.736;2023-08-21T13:25:15;4.95;;;4.50;;
12267;SDS011;6196;48.398;11.736;2023-08-21T13:27:44;4.80;;;4.15;;
12267;SDS011;6196;48.398;11.736;2023-08-21T13:30:11;6.05;;;4.15;;
12267;SDS011;6196;48.398;11.736;2023-08-21T13:32:39;6.00;;;4.53;;
12267;SDS011;6196;48.398;11.736;2023-08-21T13:35:06;5.25;;;4.68;;
12267;SDS011;6196;48.398;11.736;2023-08-21T13:37:38;4.95;;;4.40;;
12267;SDS011;6196;48.398;11.736;2023-08-21T13:40:06;6.10;;;4.53;;
12267;SDS011;6196;48.398;11.736;2023-08-21T13:42:42;5.90;;;4.57;;
12267;SDS011;6196;48.398;11.736;2023-08-21T13:45:12;5.13;;;4.63;;
12267;SDS011;6196;48.398;11.736;2023-08-21T13:47:41;8.90;;;5.18;;
12267;SDS011;6196;48.398;11.736;2023-08-21T13:50:11;5.60;;;5.10;;
12267;SDS011;6196;48.398;11.736;2023-08-21T13:52:38;8.35;;;4.65;;
12267;SDS011;6196;48.398;11.736;2023-08-21T13:55:08;6.55;;;4.72;;
12267;SDS011;6196;48.398;11.736;2023-08-21T13:57:36;5.28;;;4.78;;
12267;SDS011;6196;48.398;11.736;2023-08-21T14:00:05;5.20;;;4.55;;
12267;SDS011;6196;48.398;11.736;2023-08-21T14:02:34;6.82;;;5.05;;
12267;SDS011;6196;48.398;11.736;2023-08-21T14:05:02;5.18;;;4.78;;
12267;SDS011;6196;48.398;11.736;2023-08-21T14:07:31;5.75;;;4.68;;
12267;SDS011;6196;48.398;11.736;2023-08-21T14:09:58;5.38;;;4.82;;
12267;SDS011;6196;48.398;11.736;2023-08-21T14:12:28;10.35;;;4.82;;
12267;SDS011;6196;48.398;11.736;2023-08-21T14:14:57;6.03;;;4.82;;
12267;SDS011;6196;48.398;11.736;2023-08-21T14:17:26;5.25;;;4.75;;
12267;SDS011;6196;48.398;11.736;2023-08-21T14:19:54;5.50;;;5.00;;
12267;SDS011;6196;48.398;11.736;2023-08-21T14:22:21;7.28;;;5.25;;
12267;SDS011;6196;48.398;11.736;2023-08-21T14:24:48;5.13;;;4.63;;
12267;SDS011;6196;48.398;11.736;2023-08-21T14:27:15;5.90;;;5.20;;
12267;SDS011;6196;48.398;11.736;2023-08-21T14:29:43;5.43;;;4.93;;
12267;SDS011;6196;48.398;11.736;2023-08-21T14:32:10;5.03;;;4.40;;
12267;SDS011;6196;48.398;11.736;2023-08-21T14:34:39;5.47;;;4.97;;
12267;SDS011;6196;48.398;11.736;2023-08-21T14:37:06;5.10;;;4.60;;
12267;SDS011;6196;48.398;11.736;2023-08-21T14:39:33;5.57;;;5.00;;
12267;SDS011;6196;48.398;11.736;2023-08-21T14:42:00;5.03;;;4.53;;
12267;SDS011;6196;48.398;11.736;2023-08-21T14:44:27;7.13;;;4.88;;
12267;SDS011;6196;48.398;11.736;2023-08-21T14:46:54;5.25;;;4.85;;
12267;SDS011;6196;48.398;11.736;2023-08-21T14:49:27;5.30;;;4.90;;
12267;SDS011;6196;48.398;11.736;2023-08-21T14:51:54;5.70;;;5.22;;
12267;SDS011;6196;48.398;11.736;2023-08-21T14:54:21;5.35;;;4.80;;
12267;SDS011;6196;48.398;11.736;2023-08-21T14:56:48;6.25;;;5.38;;
12267;SDS011;6196;48.398;11.736;2023-08-21T14:59:15;8.70;;;5.15;;